createdAt,value
2022-08-05T00:01:28.014Z,26.50
2022-08-05T00:04:30.860Z,26.37
2022-08-05T00:07:59.969Z,26.35
2022-08-05T00:11:01.602Z,26.52
2022-08-05T00:14:11.946Z,26.39
2022-08-05T00:17:19.420Z,26.35
2022-08-05T00:20:22.015Z,26.45
2022-08-05T00:23:45.643Z,26.37
2022-08-05T00:26:51.749Z,26.23
2022-08-05T00:29:53.877Z,26.18
2022-08-05T00:32:58.041Z,26.14
2022-08-05T00:36:14.935Z,26.11
2022-08-05T00:39:18.411Z,25.86
2022-08-05T00:42:35.052Z,25.89
2022-08-05T00:45:38.614Z,25.82
2022-08-05T00:48:50.283Z,25.74
2022-08-05T00:51:53.523Z,25.78
2022-08-05T00:54:56.037Z,25.69
2022-08-05T00:57:59.225Z,25.63
2022-08-05T01:01:01.206Z,25.52
2022-08-05T01:04:03.728Z,25.48
2022-08-05T01:07:15.674Z,25.44
2022-08-05T01:10:25.780Z,25.40
2022-08-05T01:13:58.670Z,25.34
2022-08-05T01:17:12.201Z,25.30
2022-08-05T01:20:34.556Z,25.27
2022-08-05T01:24:13.247Z,25.25
2022-08-05T01:27:55.475Z,25.15
2022-08-05T01:31:29.779Z,25.01
2022-08-05T01:34:34.164Z,24.97
2022-08-05T01:38:04.993Z,24.88
2022-08-05T01:41:07.984Z,24.85
2022-08-05T01:44:11.218Z,24.77
2022-08-05T01:47:17.182Z,24.83
2022-08-05T01:50:30.481Z,24.94
2022-08-05T01:53:54.648Z,24.78
2022-08-05T01:58:11.438Z,24.85
2022-08-05T02:00:30.240Z,24.89
2022-08-05T02:03:39.296Z,24.85
2022-08-05T02:06:41.629Z,24.75
2022-08-05T02:09:47.052Z,24.53
2022-08-05T02:12:59.970Z,24.43
2022-08-05T02:16:16.608Z,24.43
2022-08-05T02:19:41.415Z,24.45
2022-08-05T02:22:57.052Z,24.46
2022-08-05T02:26:02.834Z,24.35
2022-08-05T02:29:07.157Z,24.37
2022-08-05T02:32:30.938Z,24.39
2022-08-05T02:35:37.640Z,24.60
2022-08-05T02:38:44.712Z,24.75
2022-08-05T02:42:00.551Z,24.76
2022-08-05T02:45:03.604Z,24.88
2022-08-05T02:48:09.851Z,25.00
2022-08-05T02:51:16.301Z,25.11
2022-08-05T02:54:35.959Z,25.07
2022-08-05T02:58:12.050Z,24.99
2022-08-05T03:01:03.009Z,24.79
2022-08-05T03:04:11.784Z,24.61
2022-08-05T03:07:24.669Z,24.48
2022-08-05T03:10:36.422Z,24.54
2022-08-05T03:13:51.022Z,24.66
2022-08-05T03:16:54.141Z,25.03
2022-08-05T03:19:58.476Z,24.90
2022-08-05T03:23:00.767Z,24.29
2022-08-05T03:26:32.061Z,24.21
2022-08-05T03:29:45.748Z,24.02
2022-08-05T03:32:49.245Z,23.91
2022-08-05T03:35:51.816Z,23.86
2022-08-05T03:38:53.575Z,23.87
2022-08-05T03:41:56.669Z,23.96
2022-08-05T03:44:58.335Z,23.95
2022-08-05T03:48:00.039Z,23.96
2022-08-05T03:52:39.018Z,23.97
2022-08-05T03:56:01.121Z,24.10
2022-08-05T03:58:19.483Z,24.21
2022-08-05T04:01:22.945Z,24.16
2022-08-05T04:04:26.490Z,24.11
2022-08-05T04:07:29.747Z,24.14
2022-08-05T04:10:38.120Z,24.08
2022-08-05T04:13:50.632Z,23.96
2022-08-05T04:16:54.651Z,23.67
2022-08-05T04:20:01.847Z,23.40
2022-08-05T04:23:04.519Z,23.29
2022-08-05T04:26:06.303Z,23.32
2022-08-05T04:29:08.873Z,23.39
2022-08-05T04:32:10.949Z,23.48
2022-08-05T04:35:17.741Z,23.56
2022-08-05T04:38:21.587Z,23.68
2022-08-05T04:41:41.110Z,23.67
2022-08-05T04:44:42.899Z,23.59
2022-08-05T04:47:47.268Z,23.59
2022-08-05T04:51:03.623Z,23.61
2022-08-05T04:54:12.123Z,23.59
2022-08-05T04:57:13.966Z,23.54
2022-08-05T05:00:16.035Z,23.52
2022-08-05T05:03:18.780Z,23.48
2022-08-05T05:06:39.450Z,23.63
2022-08-05T05:09:44.559Z,23.68
2022-08-05T05:12:46.166Z,23.72
2022-08-05T05:15:56.569Z,23.83
2022-08-05T05:19:18.962Z,23.89
2022-08-05T05:22:26.412Z,23.93
2022-08-05T05:25:32.553Z,23.97
2022-08-05T05:28:42.652Z,24.04
2022-08-05T05:31:46.279Z,23.97
2022-08-05T05:34:48.405Z,23.98
2022-08-05T05:38:00.347Z,23.98
2022-08-05T05:41:03.595Z,23.86
2022-08-05T05:44:37.546Z,23.85
2022-08-05T05:48:06.967Z,23.88
2022-08-05T05:50:53.673Z,24.01
2022-08-05T05:53:59.830Z,24.12
2022-08-05T05:57:01.728Z,24.18
2022-08-05T06:00:10.223Z,24.20
2022-08-05T06:03:40.096Z,24.29
2022-08-05T06:06:38.464Z,24.38
2022-08-05T06:10:00.124Z,24.20
2022-08-05T06:13:05.420Z,24.12
2022-08-05T06:16:30.281Z,23.95
2022-08-05T06:19:34.411Z,23.91
2022-08-05T06:22:37.434Z,23.83
2022-08-05T06:26:12.201Z,23.76
2022-08-05T06:29:06.976Z,23.77
2022-08-05T06:32:28.821Z,23.83
2022-08-05T06:36:04.175Z,23.98
2022-08-05T06:38:54.792Z,24.13
2022-08-05T06:42:04.179Z,24.40
2022-08-05T06:45:08.617Z,24.77
2022-08-05T06:48:36.530Z,24.83
2022-08-05T06:51:32.670Z,24.89
2022-08-05T06:54:34.519Z,24.88
2022-08-05T06:58:03.231Z,25.06
2022-08-05T07:01:00.645Z,25.11
2022-08-05T07:04:03.105Z,25.01
2022-08-05T07:07:15.192Z,24.96
2022-08-05T07:10:17.061Z,25.31
2022-08-05T07:13:57.173Z,25.73
2022-08-05T07:18:08.749Z,26.36
2022-08-05T07:20:38.920Z,26.65
2022-08-05T07:23:50.007Z,26.46
2022-08-05T07:26:54.129Z,26.40
2022-08-05T07:30:27.355Z,26.87
2022-08-05T07:33:36.866Z,26.87
2022-08-05T07:36:51.338Z,27.12
2022-08-05T07:40:04.041Z,27.23
2022-08-05T07:43:20.778Z,27.45
2022-08-05T07:46:25.174Z,27.87
2022-08-05T07:49:34.711Z,28.30
2022-08-05T07:53:22.607Z,28.20
2022-08-05T07:56:59.790Z,28.37
2022-08-05T07:59:53.887Z,28.38
2022-08-05T08:03:14.569Z,28.42
2022-08-05T08:06:29.974Z,28.80
2022-08-05T08:10:05.395Z,29.03
2022-08-05T08:13:07.336Z,29.22
2022-08-05T08:16:50.116Z,29.45
2022-08-05T08:20:10.117Z,29.64
2022-08-05T08:23:00.213Z,29.03
2022-08-05T08:26:05.278Z,29.39
2022-08-05T08:29:45.357Z,29.40
2022-08-05T08:32:34.489Z,29.45
2022-08-05T08:35:52.957Z,29.92
2022-08-05T08:39:06.480Z,29.91
2022-08-05T08:42:34.229Z,30.13
2022-08-05T08:45:48.763Z,30.40
2022-08-05T08:49:08.047Z,30.31
2022-08-05T08:52:25.781Z,30.85
2022-08-05T08:55:31.963Z,30.99
2022-08-05T08:58:51.678Z,31.18
2022-08-05T09:01:57.541Z,31.08
2022-08-05T09:05:17.687Z,31.23
2022-08-05T09:08:20.470Z,31.12
2022-08-05T09:11:52.686Z,31.32
2022-08-05T09:14:56.432Z,31.41
2022-08-05T09:17:59.937Z,31.66
2022-08-05T09:21:02.274Z,31.92
2022-08-05T09:24:08.811Z,32.31
2022-08-05T09:28:04.669Z,32.39
2022-08-05T09:31:01.342Z,32.36
2022-08-05T09:34:23.145Z,32.48
2022-08-05T09:38:17.303Z,32.34
2022-08-05T09:40:52.191Z,32.51
2022-08-05T09:43:55.493Z,32.72
2022-08-05T09:47:17.639Z,32.62
2022-08-05T09:50:37.666Z,32.95
2022-08-05T09:53:53.529Z,32.85
2022-08-05T10:01:02.148Z,32.65
2022-08-05T10:04:16.150Z,32.59
2022-08-05T10:07:20.711Z,32.52
2022-08-05T10:10:43.998Z,32.73
2022-08-05T10:13:48.434Z,32.80
2022-08-05T10:16:53.434Z,32.92
2022-08-05T10:20:03.703Z,32.92
2022-08-05T10:23:33.994Z,32.61
2022-08-05T10:26:36.877Z,32.42
2022-08-05T10:30:06.784Z,32.66
2022-08-05T10:33:14.723Z,32.33
2022-08-05T10:36:17.584Z,32.67
2022-08-05T10:39:58.998Z,32.91
2022-08-05T10:43:02.645Z,33.07
2022-08-05T10:46:09.304Z,32.91
2022-08-05T10:49:27.090Z,33.41
2022-08-05T10:52:46.962Z,33.21
2022-08-05T10:56:25.170Z,33.31
2022-08-05T11:00:04.284Z,33.13
2022-08-05T11:03:25.730Z,33.42
2022-08-05T11:06:30.946Z,33.48
2022-08-05T11:10:03.929Z,33.80
2022-08-05T11:13:57.743Z,33.84
2022-08-05T11:17:56.852Z,34.02
2022-08-05T11:20:51.683Z,33.74
2022-08-05T11:24:05.601Z,33.58
2022-08-05T11:27:45.789Z,33.88
2022-08-05T11:30:59.065Z,34.20
2022-08-05T11:34:08.196Z,34.21
2022-08-05T11:38:30.057Z,34.21
2022-08-05T11:41:03.550Z,33.73
2022-08-05T11:44:40.752Z,33.63
2022-08-05T11:47:49.867Z,33.79
2022-08-05T11:50:53.131Z,34.17
2022-08-05T11:53:56.571Z,34.09
2022-08-05T11:57:24.427Z,34.24
2022-08-05T12:00:31.742Z,34.42
2022-08-05T12:03:55.750Z,34.76
2022-08-05T12:07:00.084Z,34.68
2022-08-05T12:10:09.005Z,35.34
2022-08-05T12:13:15.782Z,35.12
2022-08-05T12:16:20.316Z,35.17
2022-08-05T12:20:25.340Z,35.51
2022-08-05T12:22:49.154Z,35.61
2022-08-05T12:25:56.619Z,35.51
2022-08-05T12:29:01.318Z,35.93
2022-08-05T12:32:05.586Z,35.20
2022-08-05T12:35:09.691Z,35.80
2022-08-05T12:38:11.548Z,35.67
2022-08-05T12:41:17.517Z,35.58
2022-08-05T12:44:28.592Z,35.63
2022-08-05T12:47:36.151Z,35.01
2022-08-05T12:50:38.531Z,35.47
2022-08-05T12:53:55.617Z,35.38
2022-08-05T12:57:03.775Z,34.48
2022-08-05T13:02:04.266Z,34.67
2022-08-05T13:03:48.809Z,34.48
2022-08-05T13:06:52.047Z,34.66
2022-08-05T13:09:58.887Z,34.63
2022-08-05T13:13:06.410Z,34.98
2022-08-05T13:16:16.690Z,34.76
2022-08-05T13:19:21.675Z,34.85
2022-08-05T13:22:29.146Z,35.42
2022-08-05T13:25:52.120Z,34.91
2022-08-05T13:28:53.825Z,34.93
2022-08-05T13:32:04.350Z,34.77
2022-08-05T13:35:08.002Z,34.14
2022-08-05T13:38:11.526Z,34.15
2022-08-05T13:41:22.534Z,34.05
2022-08-05T13:44:27.432Z,34.63
2022-08-05T13:47:35.717Z,35.04
2022-08-05T13:50:52.271Z,33.94
2022-08-05T13:53:57.851Z,33.27
2022-08-05T13:56:59.701Z,33.41
2022-08-05T14:00:02.143Z,32.97
2022-08-05T14:03:11.013Z,32.82
2022-08-05T14:06:26.050Z,32.56
2022-08-05T14:09:29.733Z,33.10
2022-08-05T14:12:34.099Z,32.82
2022-08-05T14:16:07.546Z,31.96
2022-08-05T14:18:57.991Z,31.76
2022-08-05T14:22:09.974Z,31.19
2022-08-05T14:25:21.814Z,30.93
2022-08-05T14:28:26.981Z,30.82
2022-08-05T14:31:54.584Z,30.40
2022-08-05T14:34:51.041Z,29.98
2022-08-05T14:37:55.473Z,29.80
2022-08-05T14:40:57.518Z,29.89
2022-08-05T14:44:09.814Z,29.96
2022-08-05T14:47:58.370Z,29.88
2022-08-05T14:50:44.170Z,29.94
2022-08-05T14:54:26.979Z,29.94
2022-08-05T14:57:53.844Z,30.85
2022-08-05T15:00:59.283Z,31.24
2022-08-05T15:04:02.073Z,31.24
2022-08-05T15:07:03.733Z,30.96
2022-08-05T15:10:09.795Z,31.20
2022-08-05T15:13:11.994Z,31.13
2022-08-05T15:16:14.973Z,30.28
2022-08-05T15:19:23.865Z,29.89
2022-08-05T15:22:28.388Z,30.03
2022-08-05T15:25:52.592Z,30.13
2022-08-05T15:28:57.954Z,30.16
2022-08-05T15:32:02.243Z,30.56
2022-08-05T15:35:10.629Z,30.66
2022-08-05T15:38:35.408Z,30.48
2022-08-05T15:41:57.714Z,30.62
2022-08-05T15:44:57.544Z,29.71
2022-08-05T15:47:59.153Z,29.86
2022-08-05T15:51:03.414Z,30.25
2022-08-05T15:54:08.330Z,30.65
2022-08-05T15:57:10.373Z,30.85
2022-08-05T16:00:13.073Z,30.62
2022-08-05T16:03:18.874Z,30.43
2022-08-05T16:06:29.449Z,29.94
2022-08-05T16:09:32.006Z,29.41
2022-08-05T16:12:34.408Z,29.26
2022-08-05T16:15:36.103Z,28.96
2022-08-05T16:18:51.696Z,28.91
2022-08-05T16:22:02.600Z,28.62
2022-08-05T16:25:09.845Z,28.34
2022-08-05T16:28:11.956Z,28.28
2022-08-05T16:31:17.452Z,28.33
2022-08-05T16:34:21.591Z,28.22
2022-08-05T16:38:15.887Z,28.12
2022-08-05T16:40:47.902Z,27.66
2022-08-05T16:43:57.051Z,27.64
2022-08-05T16:46:59.309Z,27.67
2022-08-05T16:50:00.912Z,27.44
2022-08-05T16:53:12.574Z,27.43
2022-08-05T16:56:25.104Z,27.47
2022-08-05T16:59:27.808Z,27.40
2022-08-05T17:02:29.842Z,27.19
2022-08-05T17:05:32.215Z,27.24
2022-08-05T17:08:52.449Z,27.10
2022-08-05T17:12:00.026Z,26.96
2022-08-05T17:15:02.141Z,26.92
2022-08-05T17:18:04.600Z,27.00
2022-08-05T17:21:06.398Z,26.98
2022-08-05T17:24:19.534Z,26.96
2022-08-05T17:27:33.679Z,26.84
2022-08-05T17:30:50.284Z,26.89
2022-08-05T17:33:54.016Z,26.70
2022-08-05T17:37:00.558Z,26.64
2022-08-05T17:40:03.160Z,26.61
2022-08-05T17:43:07.875Z,26.67
2022-08-05T17:46:18.272Z,26.68
2022-08-05T17:49:20.897Z,26.78
2022-08-05T17:52:26.069Z,26.56
2022-08-05T17:55:38.350Z,26.31
2022-08-05T17:58:41.495Z,26.49
2022-08-05T18:01:49.466Z,26.41
2022-08-05T18:04:55.017Z,26.49
2022-08-05T18:07:57.066Z,26.33
2022-08-05T18:10:59.291Z,26.37
2022-08-05T18:14:03.466Z,26.42
2022-08-05T18:17:06.115Z,26.37
2022-08-05T18:20:29.653Z,26.12
2022-08-05T18:23:45.827Z,26.16
2022-08-05T18:26:48.971Z,25.94
2022-08-05T18:29:54.366Z,25.89
2022-08-05T18:33:00.525Z,25.84
2022-08-05T18:36:11.866Z,25.75
2022-08-05T18:39:42.423Z,25.63
2022-08-05T18:42:40.194Z,25.37
2022-08-05T18:45:43.799Z,25.24
2022-08-05T18:48:51.840Z,24.80
2022-08-05T18:52:12.349Z,24.66
2022-08-05T18:55:14.005Z,24.47
2022-08-05T18:58:16.442Z,24.18
2022-08-05T19:01:18.663Z,24.02
2022-08-05T19:04:35.158Z,24.12
2022-08-05T19:07:59.751Z,23.98
2022-08-05T19:11:04.708Z,23.77
2022-08-05T19:14:44.425Z,23.77
2022-08-05T19:17:33.747Z,23.46
2022-08-05T19:20:52.534Z,23.51
2022-08-05T19:24:07.430Z,23.39
2022-08-05T19:27:11.540Z,23.32
2022-08-05T19:30:16.146Z,23.23
2022-08-05T19:33:35.974Z,23.27
2022-08-05T19:36:38.615Z,23.26
2022-08-05T19:39:45.658Z,23.08
2022-08-05T19:43:05.541Z,23.07
2022-08-05T19:46:29.243Z,23.09
2022-08-05T19:49:30.762Z,23.07
2022-08-05T19:52:32.687Z,23.07
2022-08-05T19:56:14.879Z,23.06
2022-08-05T19:58:56.301Z,22.87
2022-08-05T20:02:01.468Z,22.89
2022-08-05T20:05:05.098Z,22.74
2022-08-05T20:08:11.587Z,22.75
2022-08-05T20:11:17.884Z,22.62
2022-08-05T20:14:27.145Z,22.65
2022-08-05T20:17:29.119Z,22.62
2022-08-05T20:20:35.459Z,22.50
2022-08-05T20:23:51.192Z,22.50
2022-08-05T20:26:55.053Z,22.52
2022-08-05T20:29:59.052Z,22.44
2022-08-05T20:33:00.948Z,22.39
2022-08-05T20:36:02.649Z,22.32
2022-08-05T20:39:04.460Z,22.27
2022-08-05T20:42:08.051Z,22.33
2022-08-05T20:45:13.498Z,22.27
2022-08-05T20:48:16.700Z,22.24
2022-08-05T20:51:18.527Z,22.06
2022-08-05T20:54:20.265Z,21.94
2022-08-05T20:57:42.640Z,21.87
2022-08-05T21:00:51.787Z,21.87
2022-08-05T21:03:56.537Z,21.74
2022-08-05T21:06:59.151Z,21.89
2022-08-05T21:10:01.294Z,21.81
2022-08-05T21:13:10.334Z,21.71
2022-08-05T21:16:17.689Z,21.62
2022-08-05T21:19:20.112Z,21.50
2022-08-05T21:22:25.470Z,21.56
2022-08-05T21:25:33.992Z,21.53
2022-08-05T21:28:36.028Z,21.46
2022-08-05T21:31:41.341Z,21.41
2022-08-05T21:34:43.537Z,21.39
2022-08-05T21:37:58.252Z,21.22
2022-08-05T21:40:59.952Z,21.23
2022-08-05T21:44:04.287Z,21.17
2022-08-05T21:47:06.517Z,21.16
2022-08-05T21:50:28.291Z,20.99
2022-08-05T21:53:30.222Z,21.04
2022-08-05T21:56:35.809Z,20.96
2022-08-05T22:00:04.821Z,20.91
2022-08-05T22:03:15.381Z,20.91
2022-08-05T22:06:22.496Z,20.79
2022-08-05T22:09:25.212Z,20.78
2022-08-05T22:12:50.653Z,20.65
2022-08-05T22:16:00.286Z,20.69
2022-08-05T22:19:56.087Z,20.66
2022-08-05T22:22:28.846Z,20.58
2022-08-05T22:26:09.938Z,20.56
2022-08-05T22:29:11.928Z,20.72
2022-08-05T22:32:17.434Z,20.71
2022-08-05T22:35:19.742Z,20.73
2022-08-05T22:38:21.421Z,20.58
2022-08-05T22:42:10.151Z,20.58
2022-08-05T22:44:56.444Z,20.55
2022-08-05T22:47:58.607Z,20.71
2022-08-05T22:51:00.419Z,20.76
2022-08-05T22:54:08.570Z,20.86
2022-08-05T22:57:10.362Z,20.98
2022-08-05T23:00:12.427Z,20.98
2022-08-05T23:03:20.286Z,20.97
2022-08-05T23:06:42.488Z,21.04
2022-08-05T23:09:57.898Z,21.02
2022-08-05T23:13:04.315Z,21.08
2022-08-05T23:16:10.389Z,21.03
2022-08-05T23:19:25.919Z,21.12
2022-08-05T23:22:28.797Z,20.97
2022-08-05T23:25:52.568Z,20.86
2022-08-05T23:28:52.601Z,21.00
2022-08-05T23:31:55.749Z,20.96
2022-08-05T23:34:58.982Z,20.93
2022-08-05T23:38:00.892Z,20.85
2022-08-05T23:41:02.641Z,20.87
2022-08-05T23:44:08.567Z,20.85
2022-08-05T23:47:15.533Z,20.93
2022-08-05T23:50:19.978Z,20.90
2022-08-05T23:53:22.506Z,20.91
2022-08-05T23:56:27.184Z,20.82
2022-08-05T23:59:37.789Z,20.87
